sensor_id;sensor_type;location;lat;lon;timestamp;P1;durP1;ratioP1;P2;durP2;ratioP2
12703;SDS011;6416;52.182;7.650;2023-02-28T00:01:41;2.70;;;2.50;;
12703;SDS011;6416;52.182;7.650;2023-02-28T00:04:06;2.90;;;2.60;;
12703;SDS011;6416;52.182;7.650;2023-02-28T00:06:32;3.03;;;2.73;;
12703;SDS011;6416;52.182;7.650;2023-02-28T00:08:57;3.57;;;3.20;;
12703;SDS011;6416;52.182;7.650;2023-02-28T00:11:23;2.80;;;2.50;;
12703;SDS011;6416;52.182;7.650;2023-02-28T00:13:48;2.83;;;2.63;;
12703;SDS011;6416;52.182;7.650;2023-02-28T00:16:15;2.50;;;2.30;;
12703;SDS011;6416;52.182;7.650;2023-02-28T00:18:43;3.13;;;2.83;;
12703;SDS011;6416;52.182;7.650;2023-02-28T00:21:08;2.60;;;2.40;;
12703;SDS011;6416;52.182;7.650;2023-02-28T00:23:34;2.87;;;2.63;;
12703;SDS011;6416;52.182;7.650;2023-02-28T00:26:00;3.43;;;2.67;;
12703;SDS011;6416;52.182;7.650;2023-02-28T00:28:26;3.30;;;2.70;;
12703;SDS011;6416;52.182;7.650;2023-02-28T00:30:51;3.43;;;2.70;;
12703;SDS011;6416;52.182;7.650;2023-02-28T00:33:17;2.70;;;2.50;;
12703;SDS011;6416;52.182;7.650;2023-02-28T00:35:42;2.20;;;2.10;;
12703;SDS011;6416;52.182;7.650;2023-02-28T00:38:08;2.73;;;2.50;;
12703;SDS011;6416;52.182;7.650;2023-02-28T00:40:34;3.13;;;2.60;;
12703;SDS011;6416;52.182;7.650;2023-02-28T00:42:59;2.27;;;2.07;;
12703;SDS011;6416;52.182;7.650;2023-02-28T00:45:25;2.70;;;2.30;;
12703;SDS011;6416;52.182;7.650;2023-02-28T00:47:50;2.60;;;2.40;;
12703;SDS011;6416;52.182;7.650;2023-02-28T00:50:20;2.90;;;2.60;;
12703;SDS011;6416;52.182;7.650;2023-02-28T00:52:46;2.97;;;2.67;;
12703;SDS011;6416;52.182;7.650;2023-02-28T00:55:12;3.07;;;2.53;;
12703;SDS011;6416;52.182;7.650;2023-02-28T00:57:37;2.87;;;2.63;;
12703;SDS011;6416;52.182;7.650;2023-02-28T01:00:03;3.20;;;2.90;;
12703;SDS011;6416;52.182;7.650;2023-02-28T01:02:30;3.43;;;2.80;;
12703;SDS011;6416;52.182;7.650;2023-02-28T01:04:55;3.57;;;3.17;;
12703;SDS011;6416;52.182;7.650;2023-02-28T01:07:21;3.20;;;2.90;;
12703;SDS011;6416;52.182;7.650;2023-02-28T01:09:46;3.53;;;2.83;;
12703;SDS011;6416;52.182;7.650;2023-02-28T01:12:12;4.80;;;2.70;;
12703;SDS011;6416;52.182;7.650;2023-02-28T01:14:37;3.33;;;2.93;;
12703;SDS011;6416;52.182;7.650;2023-02-28T01:17:04;3.63;;;3.10;;
12703;SDS011;6416;52.182;7.650;2023-02-28T01:19:29;2.67;;;2.47;;
12703;SDS011;6416;52.182;7.650;2023-02-28T01:21:55;2.60;;;2.40;;
12703;SDS011;6416;52.182;7.650;2023-02-28T01:24:20;3.30;;;2.97;;
12703;SDS011;6416;52.182;7.650;2023-02-28T01:26:46;2.87;;;2.50;;
12703;SDS011;6416;52.182;7.650;2023-02-28T01:29:11;3.27;;;2.97;;
12703;SDS011;6416;52.182;7.650;2023-02-28T01:31:37;2.83;;;2.50;;
12703;SDS011;6416;52.182;7.650;2023-02-28T01:34:02;3.60;;;2.93;;
12703;SDS011;6416;52.182;7.650;2023-02-28T01:36:28;2.97;;;2.60;;
12703;SDS011;6416;52.182;7.650;2023-02-28T01:38:54;2.87;;;2.57;;
12703;SDS011;6416;52.182;7.650;2023-02-28T01:41:23;2.80;;;2.60;;
12703;SDS011;6416;52.182;7.650;2023-02-28T01:46:18;3.23;;;2.60;;
12703;SDS011;6416;52.182;7.650;2023-02-28T01:48:48;3.40;;;2.70;;
12703;SDS011;6416;52.182;7.650;2023-02-28T01:51:41;2.90;;;2.40;;
12703;SDS011;6416;52.182;7.650;2023-02-28T01:54:12;3.47;;;2.50;;
12703;SDS011;6416;52.182;7.650;2023-02-28T01:56:44;2.60;;;2.40;;
12703;SDS011;6416;52.182;7.650;2023-02-28T01:59:14;3.70;;;2.60;;
12703;SDS011;6416;52.182;7.650;2023-02-28T02:01:46;3.00;;;2.50;;
12703;SDS011;6416;52.182;7.650;2023-02-28T02:04:12;2.57;;;2.37;;
12703;SDS011;6416;52.182;7.650;2023-02-28T02:06:39;2.70;;;2.50;;
12703;SDS011;6416;52.182;7.650;2023-02-28T02:09:07;4.93;;;2.63;;
12703;SDS011;6416;52.182;7.650;2023-02-28T02:11:33;2.63;;;2.43;;
12703;SDS011;6416;52.182;7.650;2023-02-28T02:14:12;2.60;;;2.40;;
12703;SDS011;6416;52.182;7.650;2023-02-28T02:25:19;2.70;;;2.43;;
12703;SDS011;6416;52.182;7.650;2023-02-28T02:36:23;2.60;;;2.40;;
12703;SDS011;6416;52.182;7.650;2023-02-28T02:46:45;4.00;;;2.70;;
12703;SDS011;6416;52.182;7.650;2023-02-28T02:49:25;2.30;;;2.10;;
12703;SDS011;6416;52.182;7.650;2023-02-28T02:51:55;2.50;;;2.30;;
12703;SDS011;6416;52.182;7.650;2023-02-28T02:54:27;3.27;;;2.97;;
12703;SDS011;6416;52.182;7.650;2023-02-28T02:56:57;2.97;;;2.67;;
12703;SDS011;6416;52.182;7.650;2023-02-28T02:59:25;3.17;;;2.60;;
12703;SDS011;6416;52.182;7.650;2023-02-28T03:01:53;2.60;;;2.40;;
12703;SDS011;6416;52.182;7.650;2023-02-28T03:04:22;3.10;;;2.80;;
12703;SDS011;6416;52.182;7.650;2023-02-28T03:06:50;2.47;;;2.27;;
12703;SDS011;6416;52.182;7.650;2023-02-28T03:09:16;2.90;;;2.40;;
12703;SDS011;6416;52.182;7.650;2023-02-28T03:11:42;2.63;;;2.43;;
12703;SDS011;6416;52.182;7.650;2023-02-28T03:20:07;2.53;;;2.20;;
12703;SDS011;6416;52.182;7.650;2023-02-28T03:22:57;3.73;;;2.40;;
12703;SDS011;6416;52.182;7.650;2023-02-28T03:25:46;4.87;;;2.53;;
12703;SDS011;6416;52.182;7.650;2023-02-28T03:28:16;3.17;;;2.50;;
12703;SDS011;6416;52.182;7.650;2023-02-28T03:30:54;2.70;;;2.50;;
12703;SDS011;6416;52.182;7.650;2023-02-28T03:33:24;2.73;;;2.50;;
12703;SDS011;6416;52.182;7.650;2023-02-28T03:36:05;3.10;;;2.80;;
12703;SDS011;6416;52.182;7.650;2023-02-28T03:38:40;2.97;;;2.67;;
12703;SDS011;6416;52.182;7.650;2023-02-28T03:41:19;2.50;;;2.30;;
12703;SDS011;6416;52.182;7.650;2023-02-28T03:43:58;2.70;;;2.50;;
12703;SDS011;6416;52.182;7.650;2023-02-28T03:46:28;7.43;;;2.70;;
12703;SDS011;6416;52.182;7.650;2023-02-28T03:49:02;2.67;;;2.47;;
12703;SDS011;6416;52.182;7.650;2023-02-28T03:51:33;2.97;;;2.53;;
12703;SDS011;6416;52.182;7.650;2023-02-28T03:54:03;2.63;;;2.43;;
12703;SDS011;6416;52.182;7.650;2023-02-28T03:56:37;4.10;;;3.10;;
12703;SDS011;6416;52.182;7.650;2023-02-28T04:02:19;3.43;;;2.70;;
12703;SDS011;6416;52.182;7.650;2023-02-28T04:04:44;2.50;;;2.30;;
12703;SDS011;6416;52.182;7.650;2023-02-28T04:07:10;3.00;;;2.80;;
12703;SDS011;6416;52.182;7.650;2023-02-28T04:09:36;2.87;;;2.53;;
12703;SDS011;6416;52.182;7.650;2023-02-28T04:12:02;2.67;;;2.47;;
12703;SDS011;6416;52.182;7.650;2023-02-28T04:14:27;2.93;;;2.67;;
12703;SDS011;6416;52.182;7.650;2023-02-28T04:16:53;3.10;;;2.70;;
12703;SDS011;6416;52.182;7.650;2023-02-28T04:19:18;4.00;;;2.80;;
12703;SDS011;6416;52.182;7.650;2023-02-28T04:21:45;2.90;;;2.60;;
12703;SDS011;6416;52.182;7.650;2023-02-28T04:24:21;3.03;;;2.80;;
12703;SDS011;6416;52.182;7.650;2023-02-28T04:26:49;2.60;;;2.30;;
12703;SDS011;6416;52.182;7.650;2023-02-28T04:29:24;2.60;;;2.40;;
12703;SDS011;6416;52.182;7.650;2023-02-28T04:31:52;2.60;;;2.40;;
12703;SDS011;6416;52.182;7.650;2023-02-28T04:34:18;2.63;;;2.43;;
12703;SDS011;6416;52.182;7.650;2023-02-28T04:36:44;3.00;;;2.50;;
12703;SDS011;6416;52.182;7.650;2023-02-28T04:39:10;3.50;;;2.33;;
12703;SDS011;6416;52.182;7.650;2023-02-28T04:41:35;2.80;;;2.60;;
12703;SDS011;6416;52.182;7.650;2023-02-28T04:44:00;2.77;;;2.50;;
12703;SDS011;6416;52.182;7.650;2023-02-28T04:46:26;3.33;;;2.53;;
12703;SDS011;6416;52.182;7.650;2023-02-28T04:48:52;2.80;;;2.50;;
12703;SDS011;6416;52.182;7.650;2023-02-28T04:51:17;2.37;;;2.17;;
12703;SDS011;6416;52.182;7.650;2023-02-28T04:53:43;2.80;;;2.60;;
12703;SDS011;6416;52.182;7.650;2023-02-28T04:56:10;3.47;;;2.80;;
12703;SDS011;6416;52.182;7.650;2023-02-28T04:58:38;2.20;;;2.10;;
12703;SDS011;6416;52.182;7.650;2023-02-28T05:01:04;2.67;;;2.40;;
12703;SDS011;6416;52.182;7.650;2023-02-28T05:03:32;2.67;;;2.43;;
12703;SDS011;6416;52.182;7.650;2023-02-28T05:05:57;2.67;;;2.40;;
12703;SDS011;6416;52.182;7.650;2023-02-28T05:08:23;2.80;;;2.60;;
12703;SDS011;6416;52.182;7.650;2023-02-28T05:10:48;2.80;;;2.60;;
12703;SDS011;6416;52.182;7.650;2023-02-28T05:13:14;2.57;;;2.37;;
12703;SDS011;6416;52.182;7.650;2023-02-28T05:15:39;2.67;;;2.40;;
12703;SDS011;6416;52.182;7.650;2023-02-28T05:18:05;2.97;;;2.47;;
12703;SDS011;6416;52.182;7.650;2023-02-28T05:20:30;3.37;;;3.03;;
12703;SDS011;6416;52.182;7.650;2023-02-28T05:22:56;3.03;;;2.57;;
12703;SDS011;6416;52.182;7.650;2023-02-28T05:25:23;2.93;;;2.63;;
12703;SDS011;6416;52.182;7.650;2023-02-28T05:27:49;3.07;;;2.70;;
12703;SDS011;6416;52.182;7.650;2023-02-28T05:30:14;2.87;;;2.57;;
12703;SDS011;6416;52.182;7.650;2023-02-28T05:32:40;2.80;;;2.57;;
12703;SDS011;6416;52.182;7.650;2023-02-28T05:35:06;4.50;;;2.87;;
12703;SDS011;6416;52.182;7.650;2023-02-28T05:37:32;3.67;;;3.17;;
12703;SDS011;6416;52.182;7.650;2023-02-28T05:39:57;3.87;;;3.33;;
12703;SDS011;6416;52.182;7.650;2023-02-28T05:42:23;3.80;;;3.10;;
12703;SDS011;6416;52.182;7.650;2023-02-28T05:44:48;3.40;;;3.10;;
12703;SDS011;6416;52.182;7.650;2023-02-28T05:47:14;3.20;;;2.90;;
12703;SDS011;6416;52.182;7.650;2023-02-28T05:49:40;3.70;;;3.10;;
12703;SDS011;6416;52.182;7.650;2023-02-28T05:52:06;3.17;;;2.70;;
12703;SDS011;6416;52.182;7.650;2023-02-28T05:54:32;3.00;;;2.70;;
12703;SDS011;6416;52.182;7.650;2023-02-28T05:56:57;2.83;;;2.63;;
12703;SDS011;6416;52.182;7.650;2023-02-28T05:59:23;11.17;;;3.40;;
12703;SDS011;6416;52.182;7.650;2023-02-28T06:01:48;2.60;;;2.40;;
12703;SDS011;6416;52.182;7.650;2023-02-28T06:04:14;4.40;;;2.60;;
12703;SDS011;6416;52.182;7.650;2023-02-28T06:06:42;2.50;;;2.30;;
12703;SDS011;6416;52.182;7.650;2023-02-28T06:09:07;2.87;;;2.57;;
12703;SDS011;6416;52.182;7.650;2023-02-28T06:11:33;3.03;;;2.60;;
12703;SDS011;6416;52.182;7.650;2023-02-28T06:13:58;3.40;;;2.80;;
12703;SDS011;6416;52.182;7.650;2023-02-28T06:16:25;3.30;;;2.50;;
12703;SDS011;6416;52.182;7.650;2023-02-28T06:18:52;2.50;;;2.30;;
12703;SDS011;6416;52.182;7.650;2023-02-28T06:21:18;3.07;;;2.70;;
12703;SDS011;6416;52.182;7.650;2023-02-28T06:23:44;3.10;;;2.70;;
12703;SDS011;6416;52.182;7.650;2023-02-28T06:26:10;2.53;;;2.30;;
12703;SDS011;6416;52.182;7.650;2023-02-28T06:28:36;2.50;;;2.30;;
12703;SDS011;6416;52.182;7.650;2023-02-28T06:31:12;4.23;;;2.70;;
12703;SDS011;6416;52.182;7.650;2023-02-28T06:33:39;2.50;;;2.30;;
12703;SDS011;6416;52.182;7.650;2023-02-28T06:36:06;2.70;;;2.50;;
12703;SDS011;6416;52.182;7.650;2023-02-28T06:38:32;3.60;;;2.83;;
12703;SDS011;6416;52.182;7.650;2023-02-28T06:40:59;3.73;;;2.60;;
12703;SDS011;6416;52.182;7.650;2023-02-28T06:43:25;3.43;;;2.70;;
12703;SDS011;6416;52.182;7.650;2023-02-28T06:45:55;3.10;;;2.10;;
12703;SDS011;6416;52.182;7.650;2023-02-28T06:48:21;2.63;;;2.43;;
12703;SDS011;6416;52.182;7.650;2023-02-28T06:50:47;3.07;;;2.33;;
12703;SDS011;6416;52.182;7.650;2023-02-28T06:53:12;2.87;;;2.30;;
12703;SDS011;6416;52.182;7.650;2023-02-28T06:55:38;2.87;;;2.40;;
12703;SDS011;6416;52.182;7.650;2023-02-28T06:58:04;2.78;;;2.25;;
12703;SDS011;6416;52.182;7.650;2023-02-28T07:00:30;3.00;;;2.53;;
12703;SDS011;6416;52.182;7.650;2023-02-28T07:02:56;4.40;;;2.70;;
12703;SDS011;6416;52.182;7.650;2023-02-28T07:05:21;5.17;;;2.73;;
12703;SDS011;6416;52.182;7.650;2023-02-28T07:07:46;3.93;;;2.63;;
12703;SDS011;6416;52.182;7.650;2023-02-28T07:10:12;4.43;;;2.60;;
12703;SDS011;6416;52.182;7.650;2023-02-28T07:12:38;6.47;;;2.70;;
12703;SDS011;6416;52.182;7.650;2023-02-28T07:15:04;4.07;;;2.63;;
12703;SDS011;6416;52.182;7.650;2023-02-28T07:17:30;2.80;;;2.47;;
12703;SDS011;6416;52.182;7.650;2023-02-28T07:19:56;3.07;;;2.57;;
12703;SDS011;6416;52.182;7.650;2023-02-28T07:22:21;4.63;;;2.70;;
12703;SDS011;6416;52.182;7.650;2023-02-28T07:24:47;6.73;;;2.73;;
12703;SDS011;6416;52.182;7.650;2023-02-28T07:27:12;2.70;;;2.50;;
12703;SDS011;6416;52.182;7.650;2023-02-28T07:29:38;3.07;;;2.77;;
12703;SDS011;6416;52.182;7.650;2023-02-28T07:32:04;3.30;;;2.50;;
12703;SDS011;6416;52.182;7.650;2023-02-28T07:34:30;6.13;;;2.60;;
12703;SDS011;6416;52.182;7.650;2023-02-28T07:36:55;3.57;;;2.40;;
12703;SDS011;6416;52.182;7.650;2023-02-28T07:39:21;5.25;;;3.95;;
12703;SDS011;6416;52.182;7.650;2023-02-28T07:41:47;5.63;;;3.30;;
12703;SDS011;6416;52.182;7.650;2023-02-28T07:44:12;4.77;;;2.83;;
12703;SDS011;6416;52.182;7.650;2023-02-28T07:46:38;3.87;;;2.80;;
12703;SDS011;6416;52.182;7.650;2023-02-28T07:49:03;6.53;;;2.50;;
12703;SDS011;6416;52.182;7.650;2023-02-28T07:51:30;5.27;;;2.87;;
12703;SDS011;6416;52.182;7.650;2023-02-28T07:53:55;3.70;;;2.50;;
12703;SDS011;6416;52.182;7.650;2023-02-28T07:56:21;3.60;;;2.50;;
12703;SDS011;6416;52.182;7.650;2023-02-28T07:58:47;2.63;;;2.10;;
12703;SDS011;6416;52.182;7.650;2023-02-28T08:01:12;2.50;;;2.10;;
12703;SDS011;6416;52.182;7.650;2023-02-28T08:03:38;2.80;;;2.03;;
12703;SDS011;6416;52.182;7.650;2023-02-28T08:06:11;3.23;;;2.00;;
12703;SDS011;6416;52.182;7.650;2023-02-28T08:08:47;2.77;;;2.20;;
12703;SDS011;6416;52.182;7.650;2023-02-28T08:11:14;2.10;;;2.00;;
12703;SDS011;6416;52.182;7.650;2023-02-28T08:13:41;6.40;;;2.10;;
12703;SDS011;6416;52.182;7.650;2023-02-28T08:16:07;2.47;;;2.27;;
12703;SDS011;6416;52.182;7.650;2023-02-28T08:18:33;3.58;;;1.80;;
12703;SDS011;6416;52.182;7.650;2023-02-28T08:21:07;2.25;;;1.60;;
12703;SDS011;6416;52.182;7.650;2023-02-28T08:23:43;1.80;;;1.60;;
12703;SDS011;6416;52.182;7.650;2023-02-28T08:26:12;1.83;;;1.65;;
12703;SDS011;6416;52.182;7.650;2023-02-28T08:28:42;2.05;;;1.50;;
12703;SDS011;6416;52.182;7.650;2023-02-28T08:31:11;1.30;;;1.20;;
12703;SDS011;6416;52.182;7.650;2023-02-28T08:33:38;2.40;;;1.42;;
12703;SDS011;6416;52.182;7.650;2023-02-28T08:36:04;1.90;;;1.67;;
12703;SDS011;6416;52.182;7.650;2023-02-28T08:38:30;3.40;;;1.58;;
12703;SDS011;6416;52.182;7.650;2023-02-28T08:40:57;5.25;;;1.80;;
12703;SDS011;6416;52.182;7.650;2023-02-28T08:43:23;2.33;;;1.40;;
12703;SDS011;6416;52.182;7.650;2023-02-28T08:45:51;2.15;;;1.40;;
12703;SDS011;6416;52.182;7.650;2023-02-28T08:48:17;1.50;;;1.40;;
12703;SDS011;6416;52.182;7.650;2023-02-28T08:50:42;2.22;;;1.48;;
12703;SDS011;6416;52.182;7.650;2023-02-28T08:53:08;1.77;;;1.58;;
12703;SDS011;6416;52.182;7.650;2023-02-28T08:55:33;1.73;;;1.30;;
12703;SDS011;6416;52.182;7.650;2023-02-28T08:57:59;1.48;;;1.33;;
12703;SDS011;6416;52.182;7.650;2023-02-28T09:00:24;2.30;;;1.38;;
12703;SDS011;6416;52.182;7.650;2023-02-28T09:02:50;1.60;;;1.50;;
12703;SDS011;6416;52.182;7.650;2023-02-28T09:05:15;1.80;;;1.60;;
12703;SDS011;6416;52.182;7.650;2023-02-28T09:07:41;1.58;;;1.40;;
12703;SDS011;6416;52.182;7.650;2023-02-28T09:10:06;1.73;;;1.33;;
12703;SDS011;6416;52.182;7.650;2023-02-28T09:12:33;2.20;;;1.60;;
12703;SDS011;6416;52.182;7.650;2023-02-28T09:14:59;2.63;;;1.20;;
12703;SDS011;6416;52.182;7.650;2023-02-28T09:17:24;2.65;;;1.38;;
12703;SDS011;6416;52.182;7.650;2023-02-28T09:19:50;1.83;;;1.40;;
12703;SDS011;6416;52.182;7.650;2023-02-28T09:22:15;1.20;;;1.10;;
12703;SDS011;6416;52.182;7.650;2023-02-28T09:24:41;1.25;;;1.08;;
12703;SDS011;6416;52.182;7.650;2023-02-28T09:27:07;2.08;;;1.15;;
12703;SDS011;6416;52.182;7.650;2023-02-28T09:29:32;2.35;;;1.20;;
12703;SDS011;6416;52.182;7.650;2023-02-28T09:31:58;1.00;;;0.90;;
12703;SDS011;6416;52.182;7.650;2023-02-28T09:34:24;1.63;;;1.33;;
12703;SDS011;6416;52.182;7.650;2023-02-28T09:36:50;0.80;;;0.80;;
12703;SDS011;6416;52.182;7.650;2023-02-28T09:39:16;1.05;;;0.95;;
12703;SDS011;6416;52.182;7.650;2023-02-28T09:41:42;1.98;;;1.00;;
12703;SDS011;6416;52.182;7.650;2023-02-28T09:44:10;0.60;;;0.60;;
12703;SDS011;6416;52.182;7.650;2023-02-28T09:46:45;0.90;;;0.70;;
12703;SDS011;6416;52.182;7.650;2023-02-28T09:49:16;2.72;;;0.90;;
12703;SDS011;6416;52.182;7.650;2023-02-28T09:54:13;0.77;;;0.77;;
12703;SDS011;6416;52.182;7.650;2023-02-28T09:56:45;3.53;;;1.23;;
12703;SDS011;6416;52.182;7.650;2023-02-28T09:59:32;1.02;;;0.90;;
12703;SDS011;6416;52.182;7.650;2023-02-28T10:04:57;1.98;;;1.00;;
12703;SDS011;6416;52.182;7.650;2023-02-28T10:10:23;0.85;;;0.80;;
12703;SDS011;6416;52.182;7.650;2023-02-28T10:13:05;2.33;;;0.80;;
12703;SDS011;6416;52.182;7.650;2023-02-28T10:15:39;0.93;;;0.80;;
12703;SDS011;6416;52.182;7.650;2023-02-28T10:18:08;2.88;;;0.90;;
12703;SDS011;6416;52.182;7.650;2023-02-28T10:20:38;1.10;;;0.82;;
12703;SDS011;6416;52.182;7.650;2023-02-28T10:23:39;1.27;;;1.00;;
12703;SDS011;6416;52.182;7.650;2023-02-28T10:26:10;2.33;;;1.08;;
12703;SDS011;6416;52.182;7.650;2023-02-28T10:28:37;2.05;;;1.08;;
12703;SDS011;6416;52.182;7.650;2023-02-28T10:31:03;1.20;;;0.90;;
12703;SDS011;6416;52.182;7.650;2023-02-28T10:33:30;3.53;;;0.90;;
12703;SDS011;6416;52.182;7.650;2023-02-28T10:35:56;3.38;;;1.50;;
12703;SDS011;6416;52.182;7.650;2023-02-28T10:38:23;5.03;;;1.90;;
12703;SDS011;6416;52.182;7.650;2023-02-28T10:40:51;3.72;;;2.47;;
12703;SDS011;6416;52.182;7.650;2023-02-28T10:45:57;2.70;;;1.90;;
12703;SDS011;6416;52.182;7.650;2023-02-28T10:50:54;1.77;;;1.60;;
12703;SDS011;6416;52.182;7.650;2023-02-28T10:58:50;2.40;;;2.05;;
12703;SDS011;6416;52.182;7.650;2023-02-28T11:01:22;1.92;;;1.30;;
12703;SDS011;6416;52.182;7.650;2023-02-28T11:03:50;2.75;;;1.23;;
12703;SDS011;6416;52.182;7.650;2023-02-28T11:08:53;1.48;;;0.88;;
12703;SDS011;6416;52.182;7.650;2023-02-28T11:11:22;0.98;;;0.90;;
12703;SDS011;6416;52.182;7.650;2023-02-28T11:13:51;1.60;;;1.25;;
12703;SDS011;6416;52.182;7.650;2023-02-28T11:16:23;2.70;;;1.25;;
12703;SDS011;6416;52.182;7.650;2023-02-28T11:18:58;1.73;;;1.40;;
12703;SDS011;6416;52.182;7.650;2023-02-28T11:21:29;1.85;;;1.30;;
12703;SDS011;6416;52.182;7.650;2023-02-28T11:26:57;1.50;;;0.98;;
12703;SDS011;6416;52.182;7.650;2023-02-28T11:29:27;0.95;;;0.90;;
12703;SDS011;6416;52.182;7.650;2023-02-28T11:32:16;1.20;;;1.10;;
12703;SDS011;6416;52.182;7.650;2023-02-28T11:34:59;1.73;;;0.90;;
12703;SDS011;6416;52.182;7.650;2023-02-28T11:37:39;1.20;;;1.10;;
12703;SDS011;6416;52.182;7.650;2023-02-28T11:40:14;3.22;;;1.30;;
12703;SDS011;6416;52.182;7.650;2023-02-28T11:45:37;0.88;;;0.88;;
12703;SDS011;6416;52.182;7.650;2023-02-28T11:51:14;0.82;;;0.82;;
12703;SDS011;6416;52.182;7.650;2023-02-28T11:56:25;0.80;;;0.80;;
12703;SDS011;6416;52.182;7.650;2023-02-28T12:13:21;1.10;;;1.00;;
12703;SDS011;6416;52.182;7.650;2023-02-28T12:18:33;2.40;;;1.10;;
12703;SDS011;6416;52.182;7.650;2023-02-28T12:21:57;2.47;;;1.33;;
12703;SDS011;6416;52.182;7.650;2023-02-28T12:24:06;1.10;;;1.00;;
12703;SDS011;6416;52.182;7.650;2023-02-28T12:26:42;1.73;;;1.10;;
12703;SDS011;6416;52.182;7.650;2023-02-28T12:29:20;1.20;;;1.10;;
12703;SDS011;6416;52.182;7.650;2023-02-28T12:31:54;1.20;;;0.90;;
12703;SDS011;6416;52.182;7.650;2023-02-28T12:34:31;1.30;;;0.90;;
12703;SDS011;6416;52.182;7.650;2023-02-28T12:37:00;1.13;;;0.88;;
12703;SDS011;6416;52.182;7.650;2023-02-28T12:39:31;4.45;;;1.02;;
12703;SDS011;6416;52.182;7.650;2023-02-28T12:42:44;0.93;;;0.77;;
12703;SDS011;6416;52.182;7.650;2023-02-28T12:47:48;5.15;;;1.27;;
12703;SDS011;6416;52.182;7.650;2023-02-28T12:50:23;2.33;;;1.00;;
12703;SDS011;6416;52.182;7.650;2023-02-28T12:53:00;2.20;;;1.10;;
12703;SDS011;6416;52.182;7.650;2023-02-28T12:58:44;1.33;;;1.20;;
12703;SDS011;6416;52.182;7.650;2023-02-28T13:01:39;4.25;;;1.50;;
12703;SDS011;6416;52.182;7.650;2023-02-28T13:07:23;3.33;;;1.40;;
12703;SDS011;6416;52.182;7.650;2023-02-28T13:10:09;1.75;;;1.20;;
12703;SDS011;6416;52.182;7.650;2023-02-28T13:12:35;4.75;;;1.08;;
12703;SDS011;6416;52.182;7.650;2023-02-28T13:15:04;2.90;;;1.00;;
12703;SDS011;6416;52.182;7.650;2023-02-28T13:17:33;1.30;;;1.15;;
12703;SDS011;6416;52.182;7.650;2023-02-28T13:19:59;1.33;;;1.10;;
12703;SDS011;6416;52.182;7.650;2023-02-28T13:24:54;2.05;;;1.50;;
12703;SDS011;6416;52.182;7.650;2023-02-28T13:27:22;1.80;;;1.40;;
12703;SDS011;6416;52.182;7.650;2023-02-28T13:29:49;2.60;;;1.10;;
12703;SDS011;6416;52.182;7.650;2023-02-28T13:39:51;3.72;;;2.08;;
12703;SDS011;6416;52.182;7.650;2023-02-28T13:47:28;3.20;;;1.38;;
12703;SDS011;6416;52.182;7.650;2023-02-28T13:50:13;1.20;;;1.10;;
12703;SDS011;6416;52.182;7.650;2023-02-28T14:03:44;1.95;;;1.35;;
12703;SDS011;6416;52.182;7.650;2023-02-28T14:06:22;1.45;;;1.35;;
12703;SDS011;6416;52.182;7.650;2023-02-28T14:08:57;2.88;;;1.20;;
12703;SDS011;6416;52.182;7.650;2023-02-28T14:11:42;1.48;;;1.33;;
12703;SDS011;6416;52.182;7.650;2023-02-28T14:14:09;1.63;;;1.52;;
12703;SDS011;6416;52.182;7.650;2023-02-28T14:16:55;1.53;;;1.43;;
12703;SDS011;6416;52.182;7.650;2023-02-28T14:19:24;1.63;;;1.47;;
12703;SDS011;6416;52.182;7.650;2023-02-28T14:38:21;1.73;;;1.63;;
12703;SDS011;6416;52.182;7.650;2023-02-28T14:40:52;4.83;;;1.80;;
12703;SDS011;6416;52.182;7.650;2023-02-28T14:43:22;2.80;;;1.93;;
12703;SDS011;6416;52.182;7.650;2023-02-28T14:45:50;2.00;;;1.80;;
12703;SDS011;6416;52.182;7.650;2023-02-28T14:48:19;2.50;;;1.50;;
12703;SDS011;6416;52.182;7.650;2023-02-28T14:50:48;2.00;;;1.80;;
12703;SDS011;6416;52.182;7.650;2023-02-28T14:53:18;2.27;;;1.93;;
12703;SDS011;6416;52.182;7.650;2023-02-28T14:55:46;8.47;;;2.03;;
12703;SDS011;6416;52.182;7.650;2023-02-28T14:58:19;4.00;;;1.70;;
12703;SDS011;6416;52.182;7.650;2023-02-28T15:00:58;2.27;;;2.00;;
12703;SDS011;6416;52.182;7.650;2023-02-28T15:03:32;2.87;;;1.70;;
12703;SDS011;6416;52.182;7.650;2023-02-28T15:06:04;2.23;;;1.67;;
12703;SDS011;6416;52.182;7.650;2023-02-28T15:08:40;2.07;;;1.73;;
12703;SDS011;6416;52.182;7.650;2023-02-28T15:11:16;1.70;;;1.60;;
12703;SDS011;6416;52.182;7.650;2023-02-28T15:13:44;3.17;;;2.20;;
12703;SDS011;6416;52.182;7.650;2023-02-28T15:16:22;3.07;;;1.87;;
12703;SDS011;6416;52.182;7.650;2023-02-28T15:18:56;2.17;;;1.93;;
12703;SDS011;6416;52.182;7.650;2023-02-28T15:21:27;2.57;;;2.17;;
12703;SDS011;6416;52.182;7.650;2023-02-28T15:27:22;4.77;;;2.10;;
12703;SDS011;6416;52.182;7.650;2023-02-28T15:29:53;5.10;;;2.53;;
12703;SDS011;6416;52.182;7.650;2023-02-28T15:32:32;3.73;;;2.70;;
12703;SDS011;6416;52.182;7.650;2023-02-28T15:35:18;4.17;;;2.37;;
12703;SDS011;6416;52.182;7.650;2023-02-28T15:43:07;2.17;;;1.93;;
12703;SDS011;6416;52.182;7.650;2023-02-28T15:45:44;1.77;;;1.67;;
12703;SDS011;6416;52.182;7.650;2023-02-28T15:48:16;2.33;;;1.70;;
12703;SDS011;6416;52.182;7.650;2023-02-28T15:50:43;2.33;;;2.00;;
12703;SDS011;6416;52.182;7.650;2023-02-28T15:53:15;5.00;;;1.87;;
12703;SDS011;6416;52.182;7.650;2023-02-28T15:55:42;2.27;;;1.63;;
12703;SDS011;6416;52.182;7.650;2023-02-28T15:58:09;3.03;;;1.70;;
12703;SDS011;6416;52.182;7.650;2023-02-28T16:00:37;1.80;;;1.70;;
12703;SDS011;6416;52.182;7.650;2023-02-28T16:03:22;2.00;;;1.80;;
12703;SDS011;6416;52.182;7.650;2023-02-28T16:09:00;2.57;;;1.70;;
12703;SDS011;6416;52.182;7.650;2023-02-28T16:11:27;2.23;;;1.87;;
12703;SDS011;6416;52.182;7.650;2023-02-28T16:13:53;1.90;;;1.80;;
12703;SDS011;6416;52.182;7.650;2023-02-28T16:16:19;2.60;;;2.00;;
12703;SDS011;6416;52.182;7.650;2023-02-28T16:18:46;4.30;;;2.17;;
12703;SDS011;6416;52.182;7.650;2023-02-28T16:21:12;2.50;;;2.00;;
12703;SDS011;6416;52.182;7.650;2023-02-28T16:23:38;3.83;;;2.60;;
12703;SDS011;6416;52.182;7.650;2023-02-28T16:26:03;2.70;;;2.10;;
12703;SDS011;6416;52.182;7.650;2023-02-28T16:28:31;3.60;;;2.73;;
12703;SDS011;6416;52.182;7.650;2023-02-28T16:30:59;3.33;;;2.93;;
12703;SDS011;6416;52.182;7.650;2023-02-28T16:33:26;2.87;;;2.40;;
12703;SDS011;6416;52.182;7.650;2023-02-28T16:35:51;2.43;;;1.90;;
12703;SDS011;6416;52.182;7.650;2023-02-28T16:38:17;2.90;;;2.00;;
12703;SDS011;6416;52.182;7.650;2023-02-28T16:40:42;3.30;;;2.10;;
12703;SDS011;6416;52.182;7.650;2023-02-28T16:43:13;1.80;;;1.70;;
12703;SDS011;6416;52.182;7.650;2023-02-28T16:45:42;1.70;;;1.60;;
12703;SDS011;6416;52.182;7.650;2023-02-28T16:48:11;1.87;;;1.67;;
12703;SDS011;6416;52.182;7.650;2023-02-28T16:50:41;2.10;;;1.73;;
12703;SDS011;6416;52.182;7.650;2023-02-28T16:53:07;2.40;;;1.70;;
12703;SDS011;6416;52.182;7.650;2023-02-28T16:55:33;2.00;;;1.60;;
12703;SDS011;6416;52.182;7.650;2023-02-28T16:58:00;2.03;;;1.83;;
12703;SDS011;6416;52.182;7.650;2023-02-28T17:00:27;2.03;;;1.90;;
12703;SDS011;6416;52.182;7.650;2023-02-28T17:02:54;2.53;;;2.23;;
12703;SDS011;6416;52.182;7.650;2023-02-28T17:05:22;3.63;;;2.33;;
12703;SDS011;6416;52.182;7.650;2023-02-28T17:07:48;2.07;;;1.90;;
12703;SDS011;6416;52.182;7.650;2023-02-28T17:12:42;1.93;;;1.80;;
12703;SDS011;6416;52.182;7.650;2023-02-28T17:15:08;2.33;;;2.13;;
12703;SDS011;6416;52.182;7.650;2023-02-28T17:17:35;3.67;;;2.10;;
12703;SDS011;6416;52.182;7.650;2023-02-28T17:20:01;2.10;;;1.90;;
12703;SDS011;6416;52.182;7.650;2023-02-28T17:22:27;2.87;;;2.30;;
12703;SDS011;6416;52.182;7.650;2023-02-28T17:24:53;3.10;;;2.70;;
12703;SDS011;6416;52.182;7.650;2023-02-28T17:27:18;3.10;;;2.90;;
12703;SDS011;6416;52.182;7.650;2023-02-28T17:29:43;6.27;;;3.23;;
12703;SDS011;6416;52.182;7.650;2023-02-28T17:32:09;2.83;;;2.63;;
12703;SDS011;6416;52.182;7.650;2023-02-28T17:34:34;2.80;;;2.50;;
12703;SDS011;6416;52.182;7.650;2023-02-28T17:37:00;4.87;;;2.77;;
12703;SDS011;6416;52.182;7.650;2023-02-28T17:39:25;3.83;;;2.90;;
12703;SDS011;6416;52.182;7.650;2023-02-28T17:41:51;4.27;;;3.00;;
12703;SDS011;6416;52.182;7.650;2023-02-28T17:44:17;2.90;;;2.60;;